ウラジオストク の空港の天気 - METARとTAF

ウラジオストク空港 ( UHWW / VVO ) - ロシア ウラジオストク
飛行場実況気象(Metar)
観測時間05/28 21:30 +10 (05/28 11:30 UTC)
風向・風速東 2m/s
視程10km以上
天気現象
なし
気温12℃
湿度88%
気圧1006hPa
METARUHWW 281130Z 08002MPS 9999 NSC 12/10 Q1006 R25L/0///70 NOSIG RMK QFE753
過去の天気等 Google飛行場航空写真 Wunderground天気予報

過去48時間のMETAR

飛行場予報(TAF)
発表時間: 5/28 21:00 +10 (5/28 11:00 UTC)
予報対象時間: 28日22時 +10 ~ 29日22時 +10
風向・風速東 3m/s
視程3,000m
天気現象もや
全天の4割程度の雲 雲底高度 300m
全天の8割程度の積乱雲 雲底高度 910m
29日0時 +10 から
風向・風速北 3m/s
視程2,100m
天気現象弱いしゅう雨 もや
全天の8割程度の雲 雲底高度 210m
全天の8割程度の積乱雲 雲底高度 910m
29日5時 +10 ~ 29日7時 +10 に徐々に
視程300m
天気現象
全天を覆う雲 鉛直視程 60m
29日8時 +10 ~ 29日9時 +10 に徐々に
視程3,000m
天気現象もや
全天の4割程度の雲 雲底高度 300m
全天の8割程度の積乱雲 雲底高度 910m
29日15時 +10 から
風向・風速南西 3m/s
視程5,000m
天気現象煙霧
全天の8割程度の雲 雲底高度 610m
TAF UHWW 281100Z 2812/2912 10003MPS 3000 BR SCT010 BKN030CB
FM281400 35003MPS 2100 -SHRA BR BKN007 BKN030CB
BECMG 2819/2821 0300 FG VV002
BECMG 2822/2823 3000 BR SCT010 BKN030CB
FM290500 22003MPS 5000 HZ BKN020